Time;durP1;ratioP1;P1;durP2;ratioP2;P2;SDS_P1;SDS_P2;PMS_P1;PMS_P2;Temp;Humidity;BMP_temperature;BMP_pressure;BME280_temperature;BME280_humidity;BME280_pressure;Samples;Min_cycle;Max_cycle;Signal;HPM_P1;HPM_P2
2022/01/10 00:01:59;;;;;;;10.90;3.38;;;;;;;;;;5079627;28;20079;-79
2022/01/10 00:04:25;;;;;;;12.70;3.42;;;;;;;;;;5089179;28;20120;-79
2022/01/10 00:06:51;;;;;;;15.50;3.70;;;;;;;;;;5088706;28;20129;-79
2022/01/10 00:09:17;;;;;;;12.05;3.50;;;;;;;;;;5089016;28;20378;-79
2022/01/10 00:11:43;;;;;;;9.55;2.75;;;;;;;;;;5087119;28;20122;-79
2022/01/10 00:14:09;;;;;;;15.63;4.53;;;;;;;;;;5091826;28;20127;-79
2022/01/10 00:16:35;;;;;;;13.00;3.85;;;;;;;;;;5091649;28;20035;-79
2022/01/10 00:19:01;;;;;;;7.60;2.70;;;;;;;;;;5081872;28;20473;-79
2022/01/10 00:21:27;;;;;;;7.88;3.25;;;;;;;;;;5084365;28;20471;-81
2022/01/10 00:23:53;;;;;;;8.75;3.38;;;;;;;;;;5080504;28;20051;-79
2022/01/10 00:26:19;;;;;;;11.80;3.63;;;;;;;;;;5081679;28;20042;-79
2022/01/10 00:28:45;;;;;;;18.77;3.95;;;;;;;;;;5082241;28;20037;-78
2022/01/10 00:31:11;;;;;;;13.98;3.75;;;;;;;;;;5081128;28;20446;-79
2022/01/10 00:33:37;;;;;;;14.45;3.53;;;;;;;;;;5082046;28;20405;-79
2022/01/10 00:36:03;;;;;;;12.80;4.28;;;;;;;;;;5081481;28;20043;-78
2022/01/10 00:38:29;;;;;;;17.20;3.47;;;;;;;;;;5081951;28;20036;-79
2022/01/10 00:40:55;;;;;;;13.85;3.80;;;;;;;;;;5080019;28;20097;-79
2022/01/10 00:43:31;;;;;;;14.02;3.42;;;;;;;;;;5082202;28;20059;-80
2022/01/10 00:45:57;;;;;;;7.68;3.40;;;;;;;;;;5083370;28;20032;-79
2022/01/10 00:48:23;;;;;;;13.75;3.65;;;;;;;;;;5081932;28;20112;-79
2022/01/10 00:50:49;;;;;;;13.23;3.80;;;;;;;;;;5080640;28;20032;-79
2022/01/10 00:53:15;;;;;;;16.33;3.78;;;;;;;;;;5080923;28;20427;-79
2022/01/10 00:55:41;;;;;;;18.00;3.95;;;;;;;;;;5081896;28;20036;-79
2022/01/10 00:58:07;;;;;;;13.48;3.70;;;;;;;;;;5080596;28;20040;-78
2022/01/10 01:00:33;;;;;;;11.70;3.47;;;;;;;;;;5079778;28;20510;-78
2022/01/10 01:02:59;;;;;;;9.13;3.55;;;;;;;;;;5080004;28;20040;-79
2022/01/10 01:05:26;;;;;;;13.90;4.32;;;;;;;;;;5080364;28;20036;-79
2022/01/10 01:07:52;;;;;;;21.73;4.18;;;;;;;;;;5081603;28;20043;-79
2022/01/10 01:13:21;;;;;;;11.18;3.15;;;;;;;;;;5083301;28;20056;-79
2022/01/10 01:24:13;;;;;;;10.27;4.38;;;;;;;;;;5048368;28;20148;-79
2022/01/10 01:26:41;;;;;;;17.50;4.30;;;;;;;;;;5083644;28;20032;-79
2022/01/10 01:29:08;;;;;;;13.23;4.07;;;;;;;;;;5091412;28;20040;-79
2022/01/10 01:31:34;;;;;;;18.65;4.50;;;;;;;;;;5091686;28;20097;-79
2022/01/10 01:34:00;;;;;;;12.70;3.65;;;;;;;;;;5091272;28;20044;-79
2022/01/10 01:36:29;;;;;;;16.70;4.13;;;;;;;;;;5091495;28;20059;-79
2022/01/10 01:38:55;;;;;;;17.98;4.70;;;;;;;;;;5090897;28;20051;-79
2022/01/10 01:41:35;;;;;;;12.73;4.32;;;;;;;;;;5090678;28;20484;-78
2022/01/10 01:44:01;;;;;;;10.77;4.03;;;;;;;;;;5090510;28;20105;-80
2022/01/10 01:46:27;;;;;;;20.48;5.35;;;;;;;;;;5090556;28;20032;-78
2022/01/10 01:48:54;;;;;;;19.02;4.28;;;;;;;;;;5081099;28;20095;-77
2022/01/10 01:51:20;;;;;;;17.40;4.68;;;;;;;;;;5080303;28;20033;-79
2022/01/10 01:53:47;;;;;;;13.90;4.78;;;;;;;;;;5079565;28;20045;-78
2022/01/10 01:56:14;;;;;;;11.25;4.35;;;;;;;;;;5078655;28;20087;-79
2022/01/10 01:58:41;;;;;;;17.83;4.88;;;;;;;;;;5080028;28;20064;-79
2022/01/10 02:01:07;;;;;;;8.50;4.43;;;;;;;;;;5078773;28;20037;-78
2022/01/10 02:03:34;;;;;;;12.93;4.25;;;;;;;;;;5079219;28;20082;-79
2022/01/10 02:06:00;;;;;;;12.57;4.20;;;;;;;;;;5081367;28;20444;-80
2022/01/10 02:08:27;;;;;;;15.50;5.13;;;;;;;;;;5079330;28;20040;-79
2022/01/10 02:10:53;;;;;;;9.63;3.70;;;;;;;;;;5078307;28;20032;-80
2022/01/10 02:13:19;;;;;;;9.65;3.75;;;;;;;;;;5079746;28;20185;-79
2022/01/10 02:15:53;;;;;;;12.32;5.00;;;;;;;;;;5078275;28;20053;-79
2022/01/10 02:18:19;;;;;;;10.55;4.38;;;;;;;;;;5078248;28;20036;-79
2022/01/10 02:20:46;;;;;;;16.17;5.05;;;;;;;;;;5080573;28;20446;-78
2022/01/10 02:23:12;;;;;;;16.90;5.35;;;;;;;;;;5083668;28;20032;-79
2022/01/10 02:25:38;;;;;;;21.30;5.18;;;;;;;;;;5081885;28;20116;-80
2022/01/10 02:28:05;;;;;;;12.90;4.50;;;;;;;;;;5081615;28;20075;-79
2022/01/10 02:30:31;;;;;;;14.25;5.43;;;;;;;;;;5082208;28;20047;-79
2022/01/10 02:32:58;;;;;;;15.50;4.72;;;;;;;;;;5082914;28;20483;-79
2022/01/10 02:35:29;;;;;;;12.73;4.85;;;;;;;;;;5081577;28;20490;-79
2022/01/10 02:37:56;;;;;;;13.93;5.18;;;;;;;;;;5080869;28;20083;-79
2022/01/10 02:40:24;;;;;;;14.10;5.10;;;;;;;;;;5082905;28;20046;-79
2022/01/10 02:42:50;;;;;;;16.73;5.10;;;;;;;;;;5063484;28;20040;-79
2022/01/10 02:45:16;;;;;;;22.92;5.03;;;;;;;;;;5083009;28;20113;-79
2022/01/10 02:47:42;;;;;;;16.25;4.57;;;;;;;;;;5082799;28;20028;-79
2022/01/10 02:50:08;;;;;;;19.70;4.47;;;;;;;;;;5081532;28;20036;-79
2022/01/10 02:52:35;;;;;;;12.60;4.78;;;;;;;;;;5089995;28;20138;-77
2022/01/10 02:55:01;;;;;;;18.05;5.35;;;;;;;;;;5093152;28;20136;-79
2022/01/10 02:57:28;;;;;;;15.52;4.93;;;;;;;;;;5092969;28;20047;-79
2022/01/10 02:59:54;;;;;;;18.08;5.60;;;;;;;;;;5093374;28;20077;-79
2022/01/10 03:02:24;;;;;;;14.32;4.95;;;;;;;;;;5092843;28;20040;-79
2022/01/10 03:04:50;;;;;;;14.57;5.10;;;;;;;;;;5092935;28;20036;-79
2022/01/10 03:07:22;;;;;;;14.90;5.25;;;;;;;;;;5093085;28;20165;-78
2022/01/10 03:09:48;;;;;;;14.98;4.90;;;;;;;;;;5092926;28;20467;-78
2022/01/10 03:12:15;;;;;;;16.92;4.80;;;;;;;;;;5092679;28;20036;-79
2022/01/10 03:14:41;;;;;;;15.23;6.20;;;;;;;;;;5092532;28;20062;-79
2022/01/10 03:17:09;;;;;;;16.13;5.43;;;;;;;;;;5092656;28;20491;-78
2022/01/10 03:19:35;;;;;;;18.48;5.40;;;;;;;;;;5092430;28;20104;-78
2022/01/10 03:22:02;;;;;;;14.93;5.70;;;;;;;;;;5092492;28;20036;-79
2022/01/10 03:24:28;;;;;;;23.45;5.63;;;;;;;;;;5092711;28;20040;-79
2022/01/10 03:26:54;;;;;;;16.25;6.40;;;;;;;;;;5092678;28;20043;-78
2022/01/10 03:29:20;;;;;;;14.57;5.35;;;;;;;;;;5092381;28;20048;-78
2022/01/10 03:31:46;;;;;;;20.50;5.32;;;;;;;;;;5091896;28;20040;-78
2022/01/10 03:34:13;;;;;;;19.45;5.43;;;;;;;;;;5092192;28;20043;-79
2022/01/10 03:36:42;;;;;;;16.73;6.45;;;;;;;;;;5092276;28;20070;-78
2022/01/10 03:39:09;;;;;;;17.30;6.03;;;;;;;;;;5092560;28;20176;-78
2022/01/10 03:41:35;;;;;;;15.57;5.68;;;;;;;;;;5092269;28;20036;-79
2022/01/10 03:44:02;;;;;;;18.55;5.93;;;;;;;;;;5091898;28;20426;-79
2022/01/10 03:46:28;;;;;;;26.60;6.32;;;;;;;;;;5091923;28;20062;-77
2022/01/10 03:48:54;;;;;;;18.95;7.03;;;;;;;;;;5091986;28;20120;-79
2022/01/10 03:51:20;;;;;;;31.90;8.32;;;;;;;;;;5091803;28;20492;-79
2022/01/10 03:53:46;;;;;;;19.55;6.72;;;;;;;;;;5091978;28;20044;-78
2022/01/10 03:56:13;;;;;;;17.08;6.82;;;;;;;;;;5091856;28;20395;-79
2022/01/10 03:58:39;;;;;;;19.95;5.97;;;;;;;;;;5091807;28;20044;-78
2022/01/10 04:01:08;;;;;;;21.13;7.32;;;;;;;;;;5092249;28;20058;-78
2022/01/10 04:03:34;;;;;;;20.88;6.53;;;;;;;;;;5091684;28;20450;-78
2022/01/10 04:06:00;;;;;;;22.85;6.85;;;;;;;;;;5091790;28;20051;-78
2022/01/10 04:08:26;;;;;;;19.98;7.60;;;;;;;;;;5091586;28;20547;-78
2022/01/10 04:10:52;;;;;;;16.73;7.03;;;;;;;;;;5091575;28;20108;-79
2022/01/10 04:13:18;;;;;;;21.17;7.45;;;;;;;;;;5091142;28;20469;-79
2022/01/10 04:15:44;;;;;;;28.98;7.72;;;;;;;;;;5087743;28;20041;-78
2022/01/10 04:18:10;;;;;;;18.92;7.22;;;;;;;;;;5080683;28;20449;-78
2022/01/10 04:20:36;;;;;;;19.70;7.32;;;;;;;;;;5082551;28;20040;-78
2022/01/10 04:23:03;;;;;;;20.35;7.20;;;;;;;;;;5080288;28;20041;-78
2022/01/10 04:25:29;;;;;;;18.30;7.85;;;;;;;;;;5081582;28;20044;-79
2022/01/10 04:27:55;;;;;;;14.75;7.68;;;;;;;;;;5078070;28;20041;-78
2022/01/10 04:30:21;;;;;;;21.63;7.55;;;;;;;;;;5054543;28;20515;-80
2022/01/10 04:32:47;;;;;;;19.70;7.32;;;;;;;;;;5071054;28;20060;-78
2022/01/10 04:35:13;;;;;;;22.70;8.48;;;;;;;;;;5070937;28;20037;-78
2022/01/10 04:37:39;;;;;;;25.25;8.43;;;;;;;;;;5070905;28;20052;-78
2022/01/10 04:40:06;;;;;;;21.88;8.20;;;;;;;;;;5070861;28;20040;-79
2022/01/10 04:42:32;;;;;;;27.13;9.30;;;;;;;;;;5070753;28;20040;-79
2022/01/10 04:44:58;;;;;;;21.45;8.07;;;;;;;;;;5069716;28;20033;-77
2022/01/10 04:47:24;;;;;;;31.80;9.30;;;;;;;;;;5070687;28;20090;-79
2022/01/10 04:52:34;;;;;;;24.50;8.27;;;;;;;;;;5087844;28;20045;-78
2022/01/10 04:55:01;;;;;;;30.80;8.93;;;;;;;;;;5070848;28;20381;-79
2022/01/10 04:57:27;;;;;;;24.15;8.95;;;;;;;;;;5071570;28;20101;-77
2022/01/10 04:59:53;;;;;;;18.45;8.57;;;;;;;;;;5070657;28;20043;-78
2022/01/10 05:02:20;;;;;;;29.02;9.30;;;;;;;;;;5071716;28;20389;-78
2022/01/10 05:04:46;;;;;;;26.90;9.77;;;;;;;;;;5071976;28;20032;-78
2022/01/10 05:07:12;;;;;;;29.83;10.35;;;;;;;;;;5071766;28;20515;-78
2022/01/10 05:09:38;;;;;;;24.65;9.63;;;;;;;;;;5072196;28;20032;-79
2022/01/10 05:12:05;;;;;;;23.83;9.20;;;;;;;;;;5071034;28;20067;-79
2022/01/10 05:14:32;;;;;;;30.20;10.68;;;;;;;;;;5070141;28;20127;-79
2022/01/10 05:16:58;;;;;;;24.77;9.15;;;;;;;;;;5070659;28;20048;-79
2022/01/10 05:19:24;;;;;;;22.25;9.75;;;;;;;;;;5070689;28;20049;-79
2022/01/10 05:21:50;;;;;;;21.35;9.95;;;;;;;;;;5070290;28;20090;-79
2022/01/10 05:24:16;;;;;;;29.63;11.23;;;;;;;;;;5070654;28;20040;-79
2022/01/10 05:26:42;;;;;;;22.92;8.95;;;;;;;;;;5070368;28;20042;-79
2022/01/10 05:29:08;;;;;;;21.65;8.82;;;;;;;;;;5070266;28;20045;-78
2022/01/10 05:31:34;;;;;;;24.80;9.32;;;;;;;;;;5077179;28;20389;-79
2022/01/10 05:34:01;;;;;;;27.60;9.60;;;;;;;;;;5079375;28;20036;-78
2022/01/10 05:36:27;;;;;;;25.10;9.15;;;;;;;;;;5087411;28;20095;-79
2022/01/10 05:38:53;;;;;;;23.73;10.02;;;;;;;;;;5090299;28;20044;-79
2022/01/10 05:41:21;;;;;;;24.02;9.73;;;;;;;;;;5084124;28;20044;-79
2022/01/10 05:43:48;;;;;;;20.20;9.02;;;;;;;;;;5077611;28;20047;-79
2022/01/10 05:46:16;;;;;;;24.95;9.40;;;;;;;;;;5078982;28;20141;-79
2022/01/10 05:48:47;;;;;;;25.45;9.50;;;;;;;;;;5080100;28;20036;-79
2022/01/10 05:51:13;;;;;;;26.35;10.75;;;;;;;;;;5078536;28;20041;-79
2022/01/10 05:53:39;;;;;;;20.05;9.18;;;;;;;;;;5078088;28;20465;-79
2022/01/10 05:56:05;;;;;;;26.98;10.15;;;;;;;;;;5081745;28;20032;-78
2022/01/10 05:58:31;;;;;;;22.58;9.35;;;;;;;;;;5082621;28;20033;-78
2022/01/10 06:00:57;;;;;;;33.15;10.63;;;;;;;;;;5082584;28;20042;-79
2022/01/10 06:03:23;;;;;;;24.63;9.93;;;;;;;;;;5083732;28;20044;-79
2022/01/10 06:05:49;;;;;;;23.60;10.32;;;;;;;;;;5082048;28;20040;-79
2022/01/10 06:08:15;;;;;;;22.65;10.60;;;;;;;;;;5082385;28;20036;-79
2022/01/10 06:10:41;;;;;;;26.48;10.23;;;;;;;;;;5086648;28;20040;-79
2022/01/10 06:13:07;;;;;;;28.98;11.27;;;;;;;;;;5094108;28;20446;-79
2022/01/10 06:15:33;;;;;;;25.35;12.23;;;;;;;;;;5094029;28;20097;-79
2022/01/10 06:17:59;;;;;;;25.50;11.23;;;;;;;;;;5093858;28;20047;-79
2022/01/10 06:20:25;;;;;;;32.35;11.10;;;;;;;;;;5090958;28;20048;-79
2022/01/10 06:22:51;;;;;;;25.10;11.73;;;;;;;;;;5083529;28;20047;-78
2022/01/10 06:25:20;;;;;;;32.63;12.77;;;;;;;;;;5083439;28;20025;-79
2022/01/10 06:27:46;;;;;;;26.92;11.70;;;;;;;;;;5081952;28;20093;-79
2022/01/10 06:30:12;;;;;;;31.35;11.88;;;;;;;;;;5083216;28;20039;-79
2022/01/10 06:32:38;;;;;;;33.83;12.73;;;;;;;;;;5083560;28;20040;-79
2022/01/10 06:35:04;;;;;;;30.55;12.93;;;;;;;;;;5082023;28;20498;-78
2022/01/10 06:37:30;;;;;;;27.73;12.05;;;;;;;;;;5083476;28;20052;-79
2022/01/10 06:39:56;;;;;;;29.23;12.40;;;;;;;;;;5083595;28;20036;-78
2022/01/10 06:42:22;;;;;;;33.08;13.30;;;;;;;;;;5081432;28;20147;-78
2022/01/10 06:44:48;;;;;;;25.58;11.05;;;;;;;;;;5083541;28;20039;-78
2022/01/10 06:47:15;;;;;;;29.48;11.77;;;;;;;;;;5083438;28;20040;-79
2022/01/10 06:49:41;;;;;;;27.70;12.05;;;;;;;;;;5099513;28;20846;-79
2022/01/10 06:52:07;;;;;;;29.17;11.82;;;;;;;;;;5085981;28;20040;-79
2022/01/10 06:54:33;;;;;;;22.05;11.13;;;;;;;;;;5082406;28;20040;-79
2022/01/10 06:56:59;;;;;;;26.40;11.48;;;;;;;;;;5069939;28;20452;-79
2022/01/10 06:59:28;;;;;;;28.20;10.30;;;;;;;;;;5069424;28;20074;-78
2022/01/10 07:01:58;;;;;;;27.98;11.13;;;;;;;;;;5069261;28;20037;-79
2022/01/10 07:04:25;;;;;;;27.20;11.52;;;;;;;;;;5069119;28;20032;-78
2022/01/10 07:06:51;;;;;;;25.77;10.52;;;;;;;;;;5067881;28;20048;-78
2022/01/10 07:09:17;;;;;;;23.58;10.07;;;;;;;;;;5068903;28;20052;-80
2022/01/10 07:11:43;;;;;;;31.02;10.93;;;;;;;;;;5069044;28;20109;-79
2022/01/10 07:14:11;;;;;;;26.08;11.05;;;;;;;;;;5068728;28;20068;-79
2022/01/10 07:16:37;;;;;;;28.60;10.73;;;;;;;;;;5069087;28;20047;-79
2022/01/10 07:19:03;;;;;;;25.60;10.93;;;;;;;;;;5068516;28;20123;-79
2022/01/10 07:21:29;;;;;;;27.30;11.65;;;;;;;;;;5068850;28;20048;-79
2022/01/10 07:23:55;;;;;;;31.63;12.57;;;;;;;;;;5068956;28;20670;-79
2022/01/10 07:26:22;;;;;;;32.22;13.32;;;;;;;;;;5068726;28;20044;-79
2022/01/10 07:28:48;;;;;;;32.53;13.38;;;;;;;;;;5068768;28;20044;-79
2022/01/10 07:31:14;;;;;;;24.90;10.48;;;;;;;;;;5068489;28;20062;-79
2022/01/10 07:33:40;;;;;;;29.58;12.27;;;;;;;;;;5068670;28;20044;-79
2022/01/10 07:36:06;;;;;;;24.63;12.27;;;;;;;;;;5068778;28;20123;-79
2022/01/10 07:38:35;;;;;;;35.00;13.73;;;;;;;;;;5068557;28;20502;-79
2022/01/10 07:41:05;;;;;;;31.10;12.80;;;;;;;;;;5068893;28;20076;-79
2022/01/10 07:43:31;;;;;;;28.33;13.15;;;;;;;;;;5067845;28;20051;-78
2022/01/10 07:45:57;;;;;;;30.55;12.68;;;;;;;;;;5068642;28;20462;-79
2022/01/10 07:48:23;;;;;;;30.15;12.00;;;;;;;;;;5068062;28;20120;-79
2022/01/10 07:50:49;;;;;;;30.50;12.73;;;;;;;;;;5068408;28;20392;-79
2022/01/10 07:53:15;;;;;;;27.92;11.15;;;;;;;;;;5068375;28;20033;-79
2022/01/10 07:55:41;;;;;;;32.20;11.85;;;;;;;;;;5067929;28;20044;-79
2022/01/10 07:58:07;;;;;;;29.25;12.90;;;;;;;;;;5068080;28;20102;-79
2022/01/10 08:00:33;;;;;;;38.92;13.68;;;;;;;;;;5071443;28;20049;-79
2022/01/10 08:02:59;;;;;;;32.05;13.48;;;;;;;;;;5071374;28;20048;-79
2022/01/10 08:05:25;;;;;;;33.10;14.13;;;;;;;;;;5071482;28;20396;-79
2022/01/10 08:07:51;;;;;;;36.25;13.57;;;;;;;;;;5071394;28;20377;-79
2022/01/10 08:10:17;;;;;;;31.00;13.50;;;;;;;;;;5071666;28;20036;-79
2022/01/10 08:12:43;;;;;;;35.17;13.18;;;;;;;;;;5069911;28;20048;-78
2022/01/10 08:15:09;;;;;;;25.85;13.32;;;;;;;;;;5068074;28;20048;-78
2022/01/10 08:17:35;;;;;;;28.30;13.02;;;;;;;;;;5067562;28;20041;-79
2022/01/10 08:20:01;;;;;;;29.50;12.38;;;;;;;;;;5067791;28;20468;-79
2022/01/10 08:22:28;;;;;;;28.77;11.02;;;;;;;;;;5067758;28;20047;-79
2022/01/10 08:24:54;;;;;;;30.17;13.38;;;;;;;;;;5067771;28;20484;-79
2022/01/10 08:27:20;;;;;;;28.13;12.00;;;;;;;;;;5067701;28;20051;-78
2022/01/10 08:29:47;;;;;;;32.05;12.43;;;;;;;;;;5067441;28;20487;-79
2022/01/10 08:32:14;;;;;;;27.30;12.55;;;;;;;;;;5067405;28;20058;-78
2022/01/10 08:34:40;;;;;;;25.00;12.60;;;;;;;;;;5067290;28;20076;-79
2022/01/10 08:37:06;;;;;;;33.33;13.07;;;;;;;;;;5067663;28;20044;-78
2022/01/10 08:39:32;;;;;;;30.83;13.95;;;;;;;;;;5067514;28;20047;-79
2022/01/10 08:41:58;;;;;;;34.20;13.05;;;;;;;;;;5066863;28;20044;-79
2022/01/10 08:44:24;;;;;;;31.50;12.88;;;;;;;;;;5067495;28;20036;-79
2022/01/10 08:46:50;;;;;;;33.17;13.52;;;;;;;;;;5067123;28;20822;-79
2022/01/10 08:49:16;;;;;;;31.85;14.20;;;;;;;;;;5067223;28;20044;-79
2022/01/10 08:51:42;;;;;;;30.77;13.75;;;;;;;;;;5067184;28;20125;-79
2022/01/10 08:54:08;;;;;;;28.73;12.60;;;;;;;;;;5067233;28;20541;-79
2022/01/10 08:56:35;;;;;;;34.58;13.75;;;;;;;;;;5067364;28;20097;-79
2022/01/10 08:59:01;;;;;;;28.88;13.30;;;;;;;;;;5068453;28;20072;-79
2022/01/10 09:01:27;;;;;;;31.90;13.27;;;;;;;;;;5070830;28;20484;-80
2022/01/10 09:03:54;;;;;;;37.97;14.45;;;;;;;;;;5070423;28;20051;-79
2022/01/10 09:06:20;;;;;;;28.42;12.75;;;;;;;;;;5070572;28;20036;-79
2022/01/10 09:08:47;;;;;;;29.60;13.48;;;;;;;;;;5070644;28;20123;-79
2022/01/10 09:11:13;;;;;;;36.75;13.20;;;;;;;;;;5070387;28;20441;-79
2022/01/10 09:13:39;;;;;;;27.65;11.88;;;;;;;;;;5070110;28;20535;-79
2022/01/10 09:16:07;;;;;;;26.50;12.73;;;;;;;;;;5070369;28;20048;-79
2022/01/10 09:18:33;;;;;;;31.33;14.07;;;;;;;;;;5070631;28;20044;-79
2022/01/10 09:20:59;;;;;;;28.85;12.73;;;;;;;;;;5070548;28;20044;-80
2022/01/10 09:23:25;;;;;;;35.08;13.85;;;;;;;;;;5070403;28;20408;-79
2022/01/10 09:25:51;;;;;;;33.42;12.65;;;;;;;;;;5070370;28;20423;-80
2022/01/10 09:28:18;;;;;;;35.28;14.77;;;;;;;;;;5067776;28;20044;-80
2022/01/10 09:30:44;;;;;;;45.13;15.98;;;;;;;;;;5069925;28;20040;-80
2022/01/10 09:33:10;;;;;;;38.40;15.05;;;;;;;;;;5072969;28;20044;-80
2022/01/10 09:35:36;;;;;;;34.75;14.60;;;;;;;;;;5073202;28;20043;-80
2022/01/10 09:38:02;;;;;;;39.28;15.40;;;;;;;;;;5073510;28;20467;-80
2022/01/10 09:40:28;;;;;;;38.83;16.45;;;;;;;;;;5073398;28;20055;-80
2022/01/10 09:42:54;;;;;;;29.75;13.55;;;;;;;;;;5073059;28;20139;-79
2022/01/10 09:45:20;;;;;;;34.83;14.35;;;;;;;;;;5073130;28;20044;-79
2022/01/10 09:47:46;;;;;;;38.08;16.58;;;;;;;;;;5072835;28;20047;-79
2022/01/10 09:50:16;;;;;;;34.47;15.30;;;;;;;;;;5073051;28;20036;-79
2022/01/10 09:52:43;;;;;;;33.70;15.10;;;;;;;;;;5073438;28;20048;-79
2022/01/10 09:55:09;;;;;;;39.38;15.30;;;;;;;;;;5073533;28;20135;-79
2022/01/10 09:57:35;;;;;;;36.53;16.17;;;;;;;;;;5073011;28;20056;-79
2022/01/10 10:00:01;;;;;;;37.13;16.02;;;;;;;;;;5073159;28;20046;-78
2022/01/10 10:02:37;;;;;;;32.97;15.30;;;;;;;;;;5073396;28;20114;-79
2022/01/10 10:05:08;;;;;;;31.13;15.55;;;;;;;;;;5073169;28;20202;-79
2022/01/10 10:07:36;;;;;;;41.42;16.85;;;;;;;;;;5073033;28;20040;-78
2022/01/10 10:10:07;;;;;;;36.42;16.40;;;;;;;;;;5072975;28;20123;-79
2022/01/10 10:12:33;;;;;;;36.15;15.15;;;;;;;;;;5073203;28;20102;-79
2022/01/10 10:15:00;;;;;;;39.03;19.25;;;;;;;;;;5072840;28;20490;-79
2022/01/10 10:17:28;;;;;;;36.70;17.40;;;;;;;;;;5090120;28;20074;-79
2022/01/10 10:19:54;;;;;;;38.35;17.02;;;;;;;;;;5072945;28;20048;-79
2022/01/10 10:22:20;;;;;;;39.95;16.63;;;;;;;;;;5072558;28;20097;-79
2022/01/10 10:24:49;;;;;;;41.17;17.80;;;;;;;;;;5073058;28;20539;-79
2022/01/10 10:27:17;;;;;;;41.47;16.85;;;;;;;;;;5072682;28;20040;-79
2022/01/10 10:29:44;;;;;;;37.80;16.80;;;;;;;;;;5072834;28;20036;-79
2022/01/10 10:32:11;;;;;;;35.25;16.75;;;;;;;;;;5073475;28;20051;-79
2022/01/10 10:34:38;;;;;;;47.85;18.75;;;;;;;;;;5072476;28;20047;-79
2022/01/10 10:37:04;;;;;;;41.88;16.95;;;;;;;;;;5072605;28;20040;-78
2022/01/10 10:39:31;;;;;;;54.38;19.30;;;;;;;;;;5073200;28;20392;-79
2022/01/10 10:41:59;;;;;;;38.40;17.83;;;;;;;;;;5071603;28;20040;-79
2022/01/10 10:44:25;;;;;;;46.42;18.17;;;;;;;;;;5069597;28;20087;-79
2022/01/10 10:46:51;;;;;;;52.00;20.10;;;;;;;;;;5069397;28;20043;-79
2022/01/10 10:49:19;;;;;;;40.55;16.42;;;;;;;;;;5069864;28;20052;-79
2022/01/10 10:51:48;;;;;;;40.28;16.90;;;;;;;;;;5069545;28;20488;-78
2022/01/10 10:54:16;;;;;;;37.10;16.35;;;;;;;;;;5069250;28;20052;-78
2022/01/10 10:56:43;;;;;;;44.55;18.20;;;;;;;;;;5069100;28;20071;-79
2022/01/10 10:59:11;;;;;;;35.25;17.48;;;;;;;;;;5069456;28;20056;-79
2022/01/10 11:01:37;;;;;;;43.42;18.10;;;;;;;;;;5069287;28;20087;-78
2022/01/10 11:04:04;;;;;;;46.00;19.65;;;;;;;;;;5069077;28;20497;-79
2022/01/10 11:06:31;;;;;;;37.85;17.95;;;;;;;;;;5069302;28;20037;-79
2022/01/10 11:08:58;;;;;;;39.22;18.05;;;;;;;;;;5068753;28;20044;-79
2022/01/10 11:11:24;;;;;;;41.03;19.23;;;;;;;;;;5069329;28;20059;-79
2022/01/10 11:13:51;;;;;;;46.65;19.60;;;;;;;;;;5068882;28;20101;-79
2022/01/10 11:16:17;;;;;;;37.53;18.38;;;;;;;;;;5068811;28;20056;-79
2022/01/10 11:18:44;;;;;;;49.83;18.40;;;;;;;;;;5069084;28;20048;-79
2022/01/10 11:21:11;;;;;;;42.50;19.00;;;;;;;;;;5068628;28;20488;-79
2022/01/10 11:23:41;;;;;;;46.70;19.15;;;;;;;;;;5068787;28;20056;-79
2022/01/10 11:26:08;;;;;;;37.13;17.95;;;;;;;;;;5069095;28;20044;-79
2022/01/10 11:28:34;;;;;;;42.58;19.40;;;;;;;;;;5068846;28;20051;-79
2022/01/10 11:31:02;;;;;;;36.47;18.33;;;;;;;;;;5068464;28;20067;-79
2022/01/10 11:33:32;;;;;;;41.15;18.65;;;;;;;;;;5073376;28;20048;-79
2022/01/10 11:36:00;;;;;;;35.53;17.30;;;;;;;;;;5080273;28;20138;-79
2022/01/10 11:38:29;;;;;;;35.45;18.50;;;;;;;;;;5077072;28;20047;-79
2022/01/10 11:41:05;;;;;;;36.97;19.80;;;;;;;;;;5095392;28;20070;-79
2022/01/10 11:43:43;;;;;;;43.00;20.13;;;;;;;;;;5079054;28;20050;-79
2022/01/10 11:46:12;;;;;;;38.72;18.92;;;;;;;;;;5079086;28;20040;-79
2022/01/10 11:48:42;;;;;;;43.50;20.27;;;;;;;;;;5079466;28;20519;-79
2022/01/10 11:51:12;;;;;;;40.23;20.27;;;;;;;;;;5077345;28;20043;-79
2022/01/10 11:53:41;;;;;;;36.60;19.25;;;;;;;;;;5081206;28;20177;-79
2022/01/10 11:56:19;;;;;;;38.55;18.30;;;;;;;;;;5079037;28;20514;-79
2022/01/10 11:59:05;;;;;;;47.75;19.25;;;;;;;;;;5078508;28;20066;-79
2022/01/10 12:01:35;;;;;;;46.28;20.30;;;;;;;;;;5068586;28;20043;-79
2022/01/10 12:04:02;;;;;;;34.83;18.43;;;;;;;;;;5077105;28;20075;-79
2022/01/10 12:06:27;;;;;;;39.42;18.63;;;;;;;;;;5068020;28;20093;-79
2022/01/10 12:08:54;;;;;;;34.38;19.05;;;;;;;;;;5067449;28;20044;-79
2022/01/10 12:11:24;;;;;;;37.60;19.45;;;;;;;;;;5067971;28;20094;-79
2022/01/10 12:13:51;;;;;;;37.20;18.33;;;;;;;;;;5067596;28;20119;-79
2022/01/10 12:16:18;;;;;;;38.20;19.85;;;;;;;;;;5067802;28;20044;-79
2022/01/10 12:18:44;;;;;;;42.53;19.63;;;;;;;;;;5067771;28;20059;-79
2022/01/10 12:21:09;;;;;;;38.38;18.13;;;;;;;;;;5067301;28;20063;-78
2022/01/10 12:23:35;;;;;;;44.00;20.13;;;;;;;;;;5067366;28;20040;-79
2022/01/10 12:26:02;;;;;;;36.05;18.38;;;;;;;;;;5066345;28;20086;-78
2022/01/10 12:28:28;;;;;;;41.30;20.70;;;;;;;;;;5086496;28;20078;-79
2022/01/10 12:30:57;;;;;;;38.92;18.77;;;;;;;;;;5088094;28;20048;-79
2022/01/10 12:33:23;;;;;;;38.42;19.92;;;;;;;;;;5070894;28;20041;-79
2022/01/10 12:35:49;;;;;;;40.08;19.60;;;;;;;;;;5071225;28;20093;-79
2022/01/10 12:38:19;;;;;;;43.45;19.27;;;;;;;;;;5071097;28;20367;-79
2022/01/10 12:40:45;;;;;;;39.17;20.00;;;;;;;;;;5087756;28;20044;-80
2022/01/10 12:43:11;;;;;;;43.70;20.17;;;;;;;;;;5071023;28;20051;-79
2022/01/10 12:45:38;;;;;;;36.30;18.42;;;;;;;;;;5087011;28;20047;-79
2022/01/10 12:48:04;;;;;;;35.58;18.45;;;;;;;;;;5070239;28;20044;-79
2022/01/10 12:50:32;;;;;;;36.95;19.08;;;;;;;;;;5070679;28;20367;-79
2022/01/10 12:52:58;;;;;;;38.17;17.52;;;;;;;;;;5087338;28;20075;-79
2022/01/10 12:55:24;;;;;;;35.60;17.00;;;;;;;;;;5087345;28;20051;-79
2022/01/10 12:57:50;;;;;;;37.85;17.88;;;;;;;;;;5087178;28;20541;-78
2022/01/10 13:00:17;;;;;;;41.28;17.83;;;;;;;;;;5087536;28;20046;-79
2022/01/10 13:02:43;;;;;;;42.58;17.90;;;;;;;;;;5086972;28;20048;-79
2022/01/10 13:05:11;;;;;;;35.20;16.92;;;;;;;;;;5086140;28;20123;-79
2022/01/10 13:07:41;;;;;;;44.10;18.70;;;;;;;;;;5087081;28;20042;-79
2022/01/10 13:10:11;;;;;;;43.53;17.95;;;;;;;;;;5086806;28;20055;-79
2022/01/10 13:12:37;;;;;;;36.13;17.23;;;;;;;;;;5086864;28;20052;-79
2022/01/10 13:15:04;;;;;;;38.55;18.02;;;;;;;;;;5087163;28;20153;-78
2022/01/10 13:17:30;;;;;;;40.47;18.67;;;;;;;;;;5069949;28;20453;-78
2022/01/10 13:20:13;;;;;;;36.03;16.63;;;;;;;;;;5070139;28;20080;-78
2022/01/10 13:22:42;;;;;;;30.95;15.23;;;;;;;;;;5069925;28;20062;-79
2022/01/10 13:25:11;;;;;;;31.25;16.30;;;;;;;;;;5087447;28;20048;-78
2022/01/10 13:27:38;;;;;;;35.17;16.17;;;;;;;;;;5071553;28;20123;-79
2022/01/10 13:30:11;;;;;;;31.60;15.73;;;;;;;;;;5086795;28;20136;-79
2022/01/10 13:32:37;;;;;;;25.75;13.75;;;;;;;;;;5069946;28;20051;-78
2022/01/10 13:35:09;;;;;;;28.15;14.45;;;;;;;;;;5087103;28;20523;-79
2022/01/10 13:37:49;;;;;;;29.83;15.65;;;;;;;;;;5086817;28;20040;-79
2022/01/10 13:40:16;;;;;;;25.92;13.07;;;;;;;;;;5086554;28;20429;-79
2022/01/10 13:43:02;;;;;;;28.58;13.38;;;;;;;;;;5086564;28;20044;-79
2022/01/10 13:45:50;;;;;;;25.38;12.95;;;;;;;;;;5069802;28;20082;-78
2022/01/10 13:48:19;;;;;;;30.38;14.18;;;;;;;;;;5086669;28;20131;-79
2022/01/10 13:50:49;;;;;;;29.13;13.77;;;;;;;;;;5069983;28;20040;-78
2022/01/10 13:53:22;;;;;;;26.15;13.00;;;;;;;;;;5086569;28;20044;-79
2022/01/10 13:56:24;;;;;;;27.38;12.75;;;;;;;;;;5086473;28;20086;-79
2022/01/10 13:58:50;;;;;;;25.15;13.30;;;;;;;;;;4972236;28;20107;-79
2022/01/10 14:01:17;;;;;;;24.67;12.73;;;;;;;;;;5070502;28;20134;-79
2022/01/10 14:03:44;;;;;;;31.00;13.77;;;;;;;;;;5086369;28;20051;-79
2022/01/10 14:06:13;;;;;;;28.67;13.23;;;;;;;;;;5086689;28;20051;-79
2022/01/10 14:08:41;;;;;;;30.67;14.07;;;;;;;;;;5069405;28;20039;-79
2022/01/10 14:11:08;;;;;;;34.90;13.25;;;;;;;;;;5069566;28;20044;-79
2022/01/10 14:13:34;;;;;;;28.60;13.73;;;;;;;;;;5069523;28;20068;-79
2022/01/10 14:16:00;;;;;;;25.05;13.65;;;;;;;;;;5069444;28;20052;-79
2022/01/10 14:18:26;;;;;;;27.95;13.70;;;;;;;;;;5073434;28;20044;-79
2022/01/10 14:20:52;;;;;;;36.22;13.95;;;;;;;;;;5089650;28;20047;-79
2022/01/10 14:23:19;;;;;;;26.63;12.35;;;;;;;;;;5090009;28;20450;-79
2022/01/10 14:25:45;;;;;;;28.23;13.23;;;;;;;;;;5090369;28;20048;-78
2022/01/10 14:28:11;;;;;;;30.67;13.57;;;;;;;;;;5073209;28;20055;-79
2022/01/10 14:30:37;;;;;;;33.05;15.80;;;;;;;;;;5089939;28;20404;-79
2022/01/10 14:33:04;;;;;;;28.52;15.27;;;;;;;;;;5089613;28;20050;-79
2022/01/10 14:35:30;;;;;;;26.25;12.45;;;;;;;;;;5073369;28;20039;-79